createdAt,value
2022-09-14T00:01:24.916Z,7.28
2022-09-14T00:06:28.843Z,7.50
2022-09-14T00:11:31.868Z,7.97
2022-09-14T00:16:37.128Z,7.00
2022-09-14T00:21:39.986Z,6.75
2022-09-14T00:26:41.530Z,7.18
2022-09-14T00:31:43.353Z,7.40
2022-09-14T00:36:47.466Z,7.38
2022-09-14T00:41:50.170Z,7.47
2022-09-14T00:46:55.128Z,6.65
2022-09-14T00:52:08.934Z,7.25
2022-09-14T00:57:11.567Z,7.35
2022-09-14T01:02:16.771Z,7.40
2022-09-14T01:07:30.371Z,7.05
2022-09-14T01:12:42.909Z,6.53
2022-09-14T01:18:08.262Z,6.55
2022-09-14T01:23:31.458Z,7.05
2022-09-14T01:28:52.957Z,6.55
2022-09-14T01:34:13.055Z,6.40
2022-09-14T01:39:16.867Z,7.03
2022-09-14T01:44:31.486Z,6.35
2022-09-14T01:49:39.843Z,7.07
2022-09-14T01:59:47.419Z,6.70
2022-09-14T02:04:57.898Z,6.55
2022-09-14T02:09:59.381Z,6.57
2022-09-14T02:15:01.043Z,6.78
2022-09-14T02:20:07.373Z,6.85
2022-09-14T02:25:08.981Z,7.10
2022-09-14T02:30:11.121Z,6.53
2022-09-14T02:35:19.140Z,6.50
2022-09-14T02:40:30.212Z,6.72
2022-09-14T02:45:53.608Z,6.22
2022-09-14T02:51:03.316Z,6.10
2022-09-14T02:56:08.593Z,6.18
2022-09-14T03:01:17.487Z,6.22
2022-09-14T03:06:19.260Z,6.22
2022-09-14T03:11:20.878Z,6.30
2022-09-14T03:16:22.511Z,6.45
2022-09-14T03:21:24.144Z,6.18
2022-09-14T03:26:29.108Z,5.97
2022-09-14T03:31:31.016Z,5.90
2022-09-14T03:36:32.585Z,5.75
2022-09-14T03:41:34.074Z,5.93
2022-09-14T03:46:35.616Z,5.88
2022-09-14T03:51:37.140Z,6.55
2022-09-14T03:56:38.720Z,6.00
2022-09-14T04:01:40.525Z,5.88
2022-09-14T04:06:42.427Z,6.30
2022-09-14T04:11:44.030Z,6.07
2022-09-14T04:16:45.555Z,5.82
2022-09-14T04:21:47.119Z,6.45
2022-09-14T04:26:48.635Z,5.97
2022-09-14T04:31:50.126Z,7.97
2022-09-14T04:36:51.911Z,7.10
2022-09-14T04:41:53.455Z,6.90
2022-09-14T04:46:55.148Z,7.18
2022-09-14T04:51:56.801Z,7.57
2022-09-14T04:56:58.279Z,7.05
2022-09-14T05:01:59.784Z,7.35
2022-09-14T05:07:01.319Z,7.22
2022-09-14T05:12:02.894Z,7.35
2022-09-14T05:17:04.822Z,8.07
2022-09-14T05:22:06.299Z,8.82
2022-09-14T05:27:08.055Z,9.57
2022-09-14T05:32:09.554Z,9.00
2022-09-14T05:37:12.519Z,8.60
2022-09-14T05:42:14.003Z,8.48
2022-09-14T05:47:15.487Z,7.13
2022-09-14T05:52:17.272Z,7.05
2022-09-14T05:57:18.862Z,6.93
2022-09-14T06:02:20.457Z,6.45
2022-09-14T06:07:21.985Z,6.65
2022-09-14T06:12:23.532Z,7.30
2022-09-14T06:17:25.194Z,6.70
2022-09-14T06:22:26.679Z,6.75
2022-09-14T06:27:28.124Z,5.75
2022-09-14T06:32:32.623Z,6.57
2022-09-14T06:37:34.102Z,7.78
2022-09-14T06:42:35.732Z,8.05
2022-09-14T06:47:37.234Z,7.30
2022-09-14T06:52:39.527Z,5.72
2022-09-14T06:57:43.085Z,5.78
2022-09-14T07:02:45.008Z,4.90
2022-09-14T07:07:46.514Z,4.28
2022-09-14T07:12:48.146Z,4.00
2022-09-14T07:17:49.662Z,2.95
2022-09-14T07:22:51.150Z,2.85
2022-09-14T07:27:52.701Z,3.22
2022-09-14T07:32:54.507Z,3.10
2022-09-14T07:37:56.020Z,3.53
2022-09-14T07:42:57.871Z,3.42
2022-09-14T07:48:00.700Z,3.22
2022-09-14T07:53:02.194Z,3.05
2022-09-14T07:58:03.756Z,3.92
2022-09-14T08:03:05.218Z,3.78
2022-09-14T08:08:06.668Z,4.80
2022-09-14T08:13:08.192Z,4.65
2022-09-14T08:18:09.773Z,4.93
2022-09-14T08:23:11.267Z,5.90
2022-09-14T08:28:12.716Z,5.10
2022-09-14T08:33:14.221Z,5.93
2022-09-14T08:38:16.192Z,10.52
2022-09-14T08:43:20.252Z,7.03
2022-09-14T08:48:36.815Z,7.18
2022-09-14T08:53:40.749Z,6.55
2022-09-14T08:58:54.448Z,9.07
2022-09-14T09:04:29.083Z,6.45
2022-09-14T09:09:44.899Z,7.13
2022-09-14T09:15:00.956Z,8.60
2022-09-14T09:20:26.384Z,10.98
2022-09-14T09:25:38.752Z,7.30
2022-09-14T09:30:41.346Z,7.90
2022-09-14T09:35:42.998Z,8.43
2022-09-14T09:40:57.248Z,7.35
2022-09-14T09:46:04.868Z,7.72
2022-09-14T09:51:26.292Z,7.50
2022-09-14T09:56:31.068Z,6.28
2022-09-14T10:01:35.343Z,6.13
2022-09-14T10:06:43.308Z,5.85
2022-09-14T10:11:46.875Z,5.07
2022-09-14T10:16:48.481Z,4.82
2022-09-14T10:22:20.026Z,5.35
2022-09-14T10:27:38.389Z,5.15
2022-09-14T10:32:43.582Z,4.50
2022-09-14T10:38:16.492Z,3.63
2022-09-14T10:43:50.154Z,3.60
2022-09-14T10:48:51.637Z,3.60
2022-09-14T10:54:08.523Z,3.13
2022-09-14T10:59:31.735Z,3.30
2022-09-14T11:04:39.217Z,3.30
2022-09-14T11:10:05.332Z,3.27
2022-09-14T11:15:21.226Z,2.75
2022-09-14T11:21:01.414Z,2.05
2022-09-14T11:26:17.629Z,2.25
2022-09-14T11:31:25.242Z,1.80
2022-09-14T11:36:38.130Z,2.38
2022-09-14T11:41:49.641Z,2.20
2022-09-14T11:47:14.644Z,2.33
2022-09-14T11:52:24.852Z,2.13
2022-09-14T11:57:28.776Z,2.10
2022-09-14T12:02:30.310Z,1.80
2022-09-14T12:07:42.277Z,1.98
2022-09-14T12:12:46.620Z,2.35
2022-09-14T12:17:48.985Z,1.95
2022-09-14T12:22:50.596Z,1.92
2022-09-14T12:27:52.076Z,1.60
2022-09-14T12:32:53.655Z,1.95
2022-09-14T12:37:55.158Z,1.80
2022-09-14T12:42:56.812Z,1.80
2022-09-14T12:47:58.323Z,1.83
2022-09-14T12:53:15.126Z,1.70
2022-09-14T12:58:25.600Z,2.05
2022-09-14T13:03:56.643Z,2.00
2022-09-14T13:08:58.659Z,1.90
2022-09-14T13:14:01.758Z,1.63
2022-09-14T13:19:08.061Z,2.42
2022-09-14T13:24:43.233Z,1.85
2022-09-14T13:29:44.764Z,1.95
2022-09-14T13:34:47.128Z,1.80
2022-09-14T13:39:52.116Z,1.80
2022-09-14T13:44:54.371Z,1.67
2022-09-14T13:49:56.635Z,1.60
2022-09-14T13:55:16.268Z,1.70
2022-09-14T14:00:20.824Z,1.95
2022-09-14T14:05:30.651Z,1.88
2022-09-14T14:10:39.883Z,1.63
2022-09-14T14:15:43.016Z,1.90
2022-09-14T14:20:44.561Z,1.75
2022-09-14T14:25:52.060Z,2.10
2022-09-14T14:30:55.367Z,2.15
2022-09-14T14:35:56.949Z,1.75
2022-09-14T14:40:58.601Z,1.90
2022-09-14T14:46:01.735Z,1.77
2022-09-14T14:51:03.527Z,1.50
2022-09-14T14:56:05.200Z,1.92
2022-09-14T15:01:06.863Z,1.98
2022-09-14T15:06:18.754Z,1.90
2022-09-14T15:11:20.459Z,1.75
2022-09-14T15:16:22.038Z,2.00
2022-09-14T15:21:23.942Z,2.10
2022-09-14T15:26:26.324Z,1.90
2022-09-14T15:31:28.043Z,2.28
2022-09-14T15:36:47.755Z,2.13
2022-09-14T15:41:49.655Z,2.00
2022-09-14T15:46:51.944Z,1.90
2022-09-14T15:51:55.762Z,2.30
2022-09-14T15:57:00.089Z,1.90
2022-09-14T16:02:02.522Z,1.17
2022-09-14T16:07:09.411Z,1.13
2022-09-14T16:12:12.569Z,0.98
2022-09-14T16:17:14.087Z,1.00
2022-09-14T16:22:15.603Z,0.80
2022-09-14T16:27:17.365Z,0.80
2022-09-14T16:32:18.885Z,0.85
2022-09-14T16:37:20.365Z,1.20
2022-09-14T16:42:21.839Z,0.95
2022-09-14T16:47:25.554Z,0.73
2022-09-14T16:52:28.662Z,0.65
2022-09-14T16:57:30.193Z,4.88
2022-09-14T17:02:31.761Z,1.25
2022-09-14T17:07:33.743Z,1.50
2022-09-14T17:12:35.213Z,1.00
2022-09-14T17:17:36.668Z,1.38
2022-09-14T17:22:38.228Z,1.38
2022-09-14T17:27:40.575Z,0.90
2022-09-14T17:32:42.324Z,1.02
2022-09-14T17:37:43.989Z,1.60
2022-09-14T17:42:45.488Z,3.65
2022-09-14T17:47:46.985Z,2.50
2022-09-14T17:52:48.454Z,1.98
2022-09-14T17:57:50.243Z,1.30
2022-09-14T18:02:52.674Z,2.22
2022-09-14T18:07:54.587Z,1.95
2022-09-14T18:12:56.089Z,1.38
2022-09-14T18:17:57.783Z,1.83
2022-09-14T18:22:59.574Z,0.60
2022-09-14T18:28:01.158Z,1.10
2022-09-14T18:33:02.848Z,1.42
2022-09-14T18:38:06.500Z,1.50
2022-09-14T18:43:08.059Z,1.73
2022-09-14T18:48:09.662Z,2.30
2022-09-14T18:53:11.211Z,2.50
2022-09-14T18:58:12.687Z,1.90
2022-09-14T19:03:14.167Z,1.88
2022-09-14T19:08:15.817Z,1.42
2022-09-14T19:13:17.322Z,1.40
2022-09-14T19:18:18.878Z,1.27
2022-09-14T19:23:20.616Z,1.50
2022-09-14T19:28:22.059Z,1.48
2022-09-14T19:33:23.778Z,1.35
2022-09-14T19:38:25.342Z,1.45
2022-09-14T19:43:27.349Z,1.45
2022-09-14T19:48:28.826Z,1.63
2022-09-14T19:53:33.171Z,1.88
2022-09-14T19:58:40.250Z,1.33
2022-09-14T20:03:43.700Z,1.55
2022-09-14T20:08:46.542Z,1.35
2022-09-14T20:13:48.506Z,1.52
2022-09-14T20:18:50.938Z,1.50
2022-09-14T20:24:15.244Z,1.35
2022-09-14T20:29:18.913Z,1.50
2022-09-14T20:34:21.018Z,1.40
2022-09-14T20:39:23.738Z,1.30
2022-09-14T20:44:25.461Z,1.23
2022-09-14T20:49:26.979Z,1.38
2022-09-14T20:54:28.646Z,1.35
2022-09-14T20:59:30.504Z,1.50
2022-09-14T21:04:34.411Z,1.10
2022-09-14T21:09:36.071Z,1.05
2022-09-14T21:14:37.573Z,0.95
2022-09-14T21:19:39.167Z,0.90
2022-09-14T21:24:40.660Z,1.17
2022-09-14T21:29:43.048Z,0.93
2022-09-14T21:34:45.321Z,0.98
2022-09-14T21:39:47.620Z,1.10
2022-09-14T21:44:49.243Z,1.00
2022-09-14T21:49:50.714Z,0.77
2022-09-14T21:54:52.259Z,0.80
2022-09-14T21:59:53.723Z,0.80
2022-09-14T22:04:56.240Z,0.98
2022-09-14T22:09:57.731Z,0.70
2022-09-14T22:14:59.240Z,0.70
2022-09-14T22:20:01.186Z,0.93
2022-09-14T22:25:03.503Z,0.95
2022-09-14T22:30:05.430Z,0.70
2022-09-14T22:35:07.294Z,1.00
2022-09-14T22:40:09.467Z,0.90
2022-09-14T22:45:11.062Z,0.73
2022-09-14T22:50:13.097Z,0.90
2022-09-14T22:55:14.914Z,1.10
2022-09-14T23:00:16.436Z,0.82
2022-09-14T23:05:19.672Z,0.80
2022-09-14T23:10:21.607Z,0.80
2022-09-14T23:15:25.350Z,3.25
2022-09-14T23:20:26.913Z,7.47
2022-09-14T23:25:28.387Z,5.55
2022-09-14T23:30:31.164Z,3.38
2022-09-14T23:35:35.783Z,1.55
2022-09-14T23:40:39.212Z,5.78
2022-09-14T23:45:40.712Z,3.90
2022-09-14T23:50:42.467Z,3.33
2022-09-14T23:55:44.015Z,1.30
